createdAt,value
2023-01-15T00:02:18.223Z,99221.91
2023-01-15T00:04:44.703Z,99224.81
2023-01-15T00:07:11.118Z,99206.88
2023-01-15T00:09:37.562Z,99205.56
2023-01-15T00:12:04.262Z,99214.50
2023-01-15T00:14:30.706Z,99218.75
2023-01-15T00:16:57.179Z,99239.47
2023-01-15T00:19:23.591Z,99238.13
2023-01-15T00:21:50.032Z,99253.75
2023-01-15T00:24:35.178Z,99244.28
2023-01-15T00:27:20.212Z,99243.72
2023-01-15T00:29:46.763Z,99249.19
2023-01-15T00:32:13.152Z,99261.53
2023-01-15T00:34:39.570Z,99256.44
2023-01-15T00:37:05.961Z,99257.09
2023-01-15T00:39:33.332Z,99249.94
2023-01-15T00:41:59.709Z,99248.88
2023-01-15T00:44:26.124Z,99233.91
2023-01-15T00:46:52.543Z,99239.84
2023-01-15T00:49:19.030Z,99243.28
2023-01-15T00:51:45.522Z,99246.06
2023-01-15T00:54:11.940Z,99241.50
2023-01-15T00:56:38.329Z,99243.81
2023-01-15T00:59:05.333Z,99232.34
2023-01-15T01:01:32.139Z,99225.88
2023-01-15T01:03:58.591Z,99222.28
2023-01-15T01:06:25.353Z,99205.81
2023-01-15T01:08:51.729Z,99210.59
2023-01-15T01:11:21.361Z,99199.84
2023-01-15T01:13:48.960Z,99207.09
2023-01-15T01:16:32.196Z,99205.31
2023-01-15T01:19:00.279Z,99195.38
2023-01-15T01:21:27.039Z,99192.13
2023-01-15T01:23:53.684Z,99177.41
2023-01-15T01:26:20.086Z,99175.16
2023-01-15T01:28:51.316Z,99152.06
2023-01-15T01:31:18.281Z,99150.63
2023-01-15T01:33:44.871Z,99161.28
2023-01-15T01:36:11.297Z,99184.03
2023-01-15T01:38:37.706Z,99209.34
2023-01-15T01:41:04.124Z,99206.66
2023-01-15T01:43:30.622Z,99204.31
2023-01-15T01:45:57.071Z,99197.38
2023-01-15T01:48:31.797Z,99200.53
2023-01-15T01:51:00.279Z,99199.06
2023-01-15T01:53:29.299Z,99200.72
2023-01-15T01:55:56.507Z,99206.09
2023-01-15T01:58:24.878Z,99203.06
2023-01-15T02:00:52.072Z,99197.25
2023-01-15T02:03:20.468Z,99185.88
2023-01-15T02:05:52.744Z,99188.13
2023-01-15T02:08:19.139Z,99191.00
2023-01-15T02:10:50.333Z,99193.09
2023-01-15T02:13:32.739Z,99189.31
2023-01-15T02:16:01.056Z,99199.94
2023-01-15T02:18:33.396Z,99198.59
2023-01-15T02:21:24.415Z,99196.22
2023-01-15T02:24:03.225Z,99189.53
2023-01-15T02:27:02.361Z,99196.66
2023-01-15T02:29:43.256Z,99193.09
2023-01-15T02:32:32.129Z,99184.13
2023-01-15T02:35:03.544Z,99187.19
2023-01-15T02:37:34.138Z,99189.28
2023-01-15T02:40:01.486Z,99185.03
2023-01-15T02:42:29.523Z,99189.94
2023-01-15T02:44:58.743Z,99195.09
2023-01-15T02:47:27.452Z,99200.88
2023-01-15T02:49:56.870Z,99180.09
2023-01-15T02:52:27.259Z,99178.31
2023-01-15T02:54:59.218Z,99168.25
2023-01-15T02:57:28.576Z,99163.91
2023-01-15T02:59:57.023Z,99157.09
2023-01-15T03:02:27.594Z,99157.28
2023-01-15T03:05:10.093Z,99167.66
2023-01-15T03:07:45.411Z,99165.56
2023-01-15T03:10:11.892Z,99170.22
2023-01-15T03:13:02.383Z,99155.88
2023-01-15T03:16:10.412Z,99164.28
2023-01-15T03:18:44.298Z,99160.34
2023-01-15T03:21:13.900Z,99166.06
2023-01-15T03:23:43.201Z,99158.34
2023-01-15T03:26:09.583Z,99154.00
2023-01-15T03:28:37.179Z,99160.53
2023-01-15T03:31:03.647Z,99141.16
2023-01-15T03:33:30.209Z,99146.31
2023-01-15T03:35:58.960Z,99150.28
2023-01-15T03:38:28.344Z,99164.03
2023-01-15T03:41:29.011Z,99142.38
2023-01-15T03:44:05.189Z,99149.38
2023-01-15T03:46:50.121Z,99149.97
2023-01-15T03:49:57.571Z,99127.75
2023-01-15T03:52:33.512Z,99135.94
2023-01-15T03:55:16.160Z,99143.72
2023-01-15T03:57:46.539Z,99119.06
2023-01-15T04:00:21.702Z,99132.00
2023-01-15T04:02:48.640Z,99135.69
2023-01-15T04:05:15.730Z,99140.69
2023-01-15T04:07:42.535Z,99138.00
2023-01-15T04:10:10.063Z,99125.16
2023-01-15T04:12:36.453Z,99134.13
2023-01-15T04:15:03.395Z,99135.94
2023-01-15T04:17:29.788Z,99140.28
2023-01-15T04:19:56.208Z,99131.91
2023-01-15T04:22:22.678Z,99137.53
2023-01-15T04:24:49.117Z,99146.59
2023-01-15T04:27:15.566Z,99140.97
2023-01-15T04:29:41.943Z,99131.84
2023-01-15T04:32:08.327Z,99133.94
2023-01-15T04:34:35.794Z,99132.69
2023-01-15T04:37:02.212Z,99143.34
2023-01-15T04:39:28.591Z,99126.91
2023-01-15T04:42:13.400Z,99133.06
2023-01-15T04:44:39.841Z,99151.03
2023-01-15T04:47:06.642Z,99148.63
2023-01-15T04:49:34.032Z,99143.69
2023-01-15T04:52:00.414Z,99145.56
2023-01-15T04:54:26.799Z,99149.63
2023-01-15T04:56:54.384Z,99145.56
2023-01-15T04:59:25.491Z,99136.22
2023-01-15T05:02:03.165Z,99134.72
2023-01-15T05:04:31.071Z,99135.16
2023-01-15T05:06:57.496Z,99136.41
2023-01-15T05:09:23.881Z,99140.19
2023-01-15T05:11:50.253Z,99150.25
2023-01-15T05:14:16.668Z,99141.66
2023-01-15T05:16:43.126Z,99154.19
2023-01-15T05:19:10.247Z,99140.53
2023-01-15T05:21:39.664Z,99139.66
2023-01-15T05:24:08.745Z,99152.59
2023-01-15T05:26:36.170Z,99148.47
2023-01-15T05:29:03.567Z,99143.34
2023-01-15T05:31:30.803Z,99150.13
2023-01-15T05:33:57.455Z,99149.53
2023-01-15T05:36:26.501Z,99146.69
2023-01-15T05:38:54.284Z,99162.19
2023-01-15T05:41:40.100Z,99149.44
2023-01-15T05:44:10.770Z,99144.22
2023-01-15T05:46:39.437Z,99137.28
2023-01-15T05:49:08.296Z,99146.47
2023-01-15T05:51:36.186Z,99155.25
2023-01-15T05:54:03.609Z,99149.69
2023-01-15T05:56:30.197Z,99149.09
2023-01-15T05:58:56.780Z,99156.47
2023-01-15T06:01:23.472Z,99141.59
2023-01-15T06:03:49.950Z,99146.13
2023-01-15T06:06:18.293Z,99159.56
2023-01-15T06:08:45.590Z,99161.03
2023-01-15T06:11:12.520Z,99166.59
2023-01-15T06:13:39.578Z,99169.84
2023-01-15T06:16:07.023Z,99159.56
2023-01-15T06:18:35.320Z,99163.34
2023-01-15T06:21:09.934Z,99160.03
2023-01-15T06:23:36.899Z,99171.19
2023-01-15T06:26:06.384Z,99164.06
2023-01-15T06:28:32.988Z,99161.50
2023-01-15T06:30:59.638Z,99162.50
2023-01-15T06:33:26.104Z,99167.66
2023-01-15T06:35:52.539Z,99173.19
2023-01-15T06:38:18.990Z,99168.47
2023-01-15T06:40:45.397Z,99171.03
2023-01-15T06:43:30.417Z,99171.91
2023-01-15T06:46:15.390Z,99181.19
2023-01-15T06:48:43.098Z,99175.38
2023-01-15T06:51:09.518Z,99172.22
2023-01-15T06:53:35.933Z,99173.72
2023-01-15T06:56:02.343Z,99175.47
2023-01-15T06:58:28.734Z,99167.25
2023-01-15T07:00:55.844Z,99174.50
2023-01-15T07:03:22.991Z,99182.09
2023-01-15T07:05:49.717Z,99179.44
2023-01-15T07:08:16.160Z,99178.22
2023-01-15T07:10:42.543Z,99173.81
2023-01-15T07:13:12.089Z,99172.91
2023-01-15T07:15:39.597Z,99179.25
2023-01-15T07:18:05.981Z,99182.59
2023-01-15T07:20:32.768Z,99180.94
2023-01-15T07:22:59.187Z,99168.09
2023-01-15T07:25:25.678Z,99166.97
2023-01-15T07:27:52.059Z,99172.75
2023-01-15T07:30:18.579Z,99161.25
2023-01-15T07:32:45.140Z,99164.25
2023-01-15T07:35:11.557Z,99162.38
2023-01-15T07:37:39.496Z,99167.09
2023-01-15T07:40:06.190Z,99159.44
2023-01-15T07:42:51.283Z,99157.44
2023-01-15T07:45:36.284Z,99170.06
2023-01-15T07:48:21.204Z,99161.78
2023-01-15T07:50:47.595Z,99163.16
2023-01-15T07:53:13.973Z,99181.03
2023-01-15T07:55:40.365Z,99176.78
2023-01-15T07:58:06.732Z,99202.34
2023-01-15T08:00:33.109Z,99192.66
2023-01-15T08:02:59.560Z,99193.00
2023-01-15T08:05:25.965Z,99198.72
2023-01-15T08:07:52.397Z,99201.03
2023-01-15T08:10:19.828Z,99205.19
2023-01-15T08:13:04.838Z,99206.09
2023-01-15T08:15:33.799Z,99212.13
2023-01-15T08:18:00.251Z,99227.63
2023-01-15T08:20:26.934Z,99232.88
2023-01-15T08:22:53.459Z,99221.69
2023-01-15T08:25:22.179Z,99208.16
2023-01-15T08:27:48.800Z,99215.69
2023-01-15T08:30:17.810Z,99220.13
2023-01-15T08:32:44.260Z,99233.66
2023-01-15T08:35:10.893Z,99221.91
2023-01-15T08:37:37.253Z,99212.44
2023-01-15T08:40:04.483Z,99234.13
2023-01-15T08:42:30.878Z,99230.50
2023-01-15T08:44:57.302Z,99227.41
2023-01-15T08:47:23.700Z,99229.88
2023-01-15T08:49:50.069Z,99242.13
2023-01-15T08:52:16.987Z,99238.78
2023-01-15T08:54:43.617Z,99247.28
2023-01-15T08:57:11.931Z,99247.50
2023-01-15T08:59:38.424Z,99249.50
2023-01-15T09:02:04.923Z,99256.19
2023-01-15T09:04:31.512Z,99249.50
2023-01-15T09:06:57.994Z,99261.91
2023-01-15T09:09:24.388Z,99258.94
2023-01-15T09:11:50.839Z,99265.81
2023-01-15T09:14:58.580Z,99264.94
2023-01-15T09:17:03.650Z,99274.63
2023-01-15T09:19:30.121Z,99261.72
2023-01-15T09:21:56.515Z,99262.84
2023-01-15T09:24:22.880Z,99266.09
2023-01-15T09:26:53.035Z,99272.78
2023-01-15T09:29:19.850Z,99280.47
2023-01-15T09:31:46.412Z,99271.34
2023-01-15T09:34:12.806Z,99276.59
2023-01-15T09:36:41.347Z,99277.88
2023-01-15T09:39:07.889Z,99269.25
2023-01-15T09:42:09.897Z,99271.47
2023-01-15T09:44:51.385Z,99273.03
2023-01-15T09:47:26.426Z,99271.59
2023-01-15T09:50:14.260Z,99278.50
2023-01-15T09:52:49.708Z,99254.94
2023-01-15T09:55:22.493Z,99258.03
2023-01-15T09:57:54.829Z,99252.00
2023-01-15T10:00:24.374Z,99250.06
2023-01-15T10:03:04.223Z,99267.50
2023-01-15T10:05:34.123Z,99267.81
2023-01-15T10:08:17.561Z,99265.97
2023-01-15T10:10:50.427Z,99259.25
2023-01-15T10:13:29.023Z,99238.59
2023-01-15T10:15:58.266Z,99255.50
2023-01-15T10:18:25.827Z,99266.38
2023-01-15T10:21:08.136Z,99279.16
2023-01-15T10:23:51.575Z,99257.69
2023-01-15T10:26:47.495Z,99268.34
2023-01-15T10:29:19.529Z,99269.56
2023-01-15T10:31:51.420Z,99267.09
2023-01-15T10:34:36.117Z,99271.88
2023-01-15T10:37:14.691Z,99277.22
2023-01-15T10:40:12.218Z,99266.84
2023-01-15T10:42:50.348Z,99271.34
2023-01-15T10:45:21.113Z,99247.69
2023-01-15T10:47:55.509Z,99256.19
2023-01-15T10:50:24.592Z,99256.91
2023-01-15T10:53:02.303Z,99259.28
2023-01-15T10:55:51.914Z,99271.66
2023-01-15T10:58:35.532Z,99261.72
2023-01-15T11:01:10.543Z,99255.84
2023-01-15T11:03:43.275Z,99265.63
2023-01-15T11:06:18.922Z,99263.72
2023-01-15T11:11:59.734Z,99260.63
2023-01-15T11:15:01.463Z,99276.25
2023-01-15T11:17:55.221Z,99282.53
2023-01-15T11:20:21.618Z,99263.34
2023-01-15T11:22:48.212Z,99253.25
2023-01-15T11:25:25.456Z,99249.88
2023-01-15T11:27:51.952Z,99247.72
2023-01-15T11:30:30.694Z,99262.38
2023-01-15T11:32:58.960Z,99261.78
2023-01-15T11:35:25.908Z,99263.56
2023-01-15T11:38:13.599Z,99268.59
2023-01-15T11:40:40.281Z,99264.44
2023-01-15T11:43:43.571Z,99261.16
2023-01-15T11:46:48.763Z,99259.50
2023-01-15T11:49:38.989Z,99265.53
2023-01-15T11:52:10.343Z,99266.41
2023-01-15T11:54:39.306Z,99261.34
2023-01-15T11:57:06.863Z,99256.22
2023-01-15T11:59:33.375Z,99242.38
2023-01-15T12:02:04.196Z,99244.13
2023-01-15T12:04:30.688Z,99242.38
2023-01-15T12:06:57.604Z,99238.69
2023-01-15T12:09:42.415Z,99249.41
2023-01-15T12:12:30.630Z,99237.94
2023-01-15T12:15:06.763Z,99251.88
2023-01-15T12:17:53.484Z,99256.78
2023-01-15T12:20:53.327Z,99246.47
2023-01-15T12:23:38.041Z,99243.53
2023-01-15T12:26:22.585Z,99252.81
2023-01-15T12:28:55.963Z,99247.88
2023-01-15T12:31:26.397Z,99252.13
2023-01-15T12:33:57.826Z,99254.63
2023-01-15T12:36:29.728Z,99254.63
2023-01-15T12:39:01.578Z,99239.78
2023-01-15T12:41:51.156Z,99251.06
2023-01-15T12:45:05.498Z,99253.75
2023-01-15T12:47:37.110Z,99229.88
2023-01-15T12:50:12.143Z,99246.38
2023-01-15T12:52:40.660Z,99242.94
2023-01-15T12:55:14.652Z,99228.97
2023-01-15T12:57:44.557Z,99223.97
2023-01-15T13:00:13.862Z,99225.44
2023-01-15T13:03:27.002Z,99229.69
2023-01-15T13:05:57.669Z,99208.13
2023-01-15T13:08:54.974Z,99223.19
2023-01-15T13:11:21.362Z,99207.94
2023-01-15T13:13:57.922Z,99237.63
2023-01-15T13:16:39.917Z,99245.13
2023-01-15T13:19:22.525Z,99245.69
2023-01-15T13:21:52.703Z,99231.97
2023-01-15T13:24:32.233Z,99232.06
2023-01-15T13:27:14.977Z,99228.00
2023-01-15T13:30:06.243Z,99227.38
2023-01-15T13:32:42.948Z,99258.91
2023-01-15T13:35:27.206Z,99235.97
2023-01-15T13:37:55.017Z,99250.91
2023-01-15T13:40:29.154Z,99255.16
2023-01-15T13:42:56.051Z,99248.44
2023-01-15T13:45:27.558Z,99253.38
2023-01-15T13:47:57.796Z,99247.06
2023-01-15T13:50:31.094Z,99260.19
2023-01-15T13:53:26.049Z,99248.63
2023-01-15T13:55:54.426Z,99249.63
2023-01-15T13:58:27.648Z,99242.13
2023-01-15T14:01:20.666Z,99241.06
2023-01-15T14:04:08.699Z,99226.94
2023-01-15T14:06:49.059Z,99237.69
2023-01-15T14:09:18.465Z,99251.06
2023-01-15T14:12:06.731Z,99247.78
2023-01-15T14:15:03.736Z,99240.75
2023-01-15T14:17:51.031Z,99252.63
2023-01-15T14:20:33.787Z,99258.66
2023-01-15T14:23:18.983Z,99246.56
2023-01-15T14:25:53.068Z,99263.31
2023-01-15T14:28:43.845Z,99252.25
2023-01-15T14:31:13.245Z,99257.97
2023-01-15T14:33:54.917Z,99265.69
2023-01-15T14:36:26.107Z,99261.50
2023-01-15T14:38:55.897Z,99267.28
2023-01-15T14:41:27.254Z,99264.69
2023-01-15T14:43:53.914Z,99263.00
2023-01-15T14:46:30.105Z,99276.34
2023-01-15T14:48:56.490Z,99289.44
2023-01-15T14:51:30.264Z,99297.91
2023-01-15T14:54:06.852Z,99303.25
2023-01-15T14:56:36.311Z,99302.06
2023-01-15T14:59:26.832Z,99302.44
2023-01-15T15:02:02.844Z,99283.88
2023-01-15T15:04:32.893Z,99288.38
2023-01-15T15:07:05.030Z,99300.25
2023-01-15T15:09:34.038Z,99302.50
2023-01-15T15:12:20.018Z,99319.50
2023-01-15T15:14:52.034Z,99298.63
2023-01-15T15:17:43.775Z,99306.31
2023-01-15T15:20:47.592Z,99302.97
2023-01-15T15:23:28.817Z,99313.06
2023-01-15T15:26:00.895Z,99297.53
2023-01-15T15:28:28.117Z,99300.31
2023-01-15T15:30:55.193Z,99288.34
2023-01-15T15:33:24.232Z,99296.03
2023-01-15T15:35:53.843Z,99298.13
2023-01-15T15:38:22.334Z,99306.81
2023-01-15T15:40:54.146Z,99305.34
2023-01-15T15:44:00.697Z,99308.13
2023-01-15T15:46:50.426Z,99302.09
2023-01-15T15:49:17.244Z,99306.31
2023-01-15T15:51:51.443Z,99302.00
2023-01-15T15:54:28.039Z,99296.81
2023-01-15T15:57:07.056Z,99289.97
2023-01-15T15:59:38.386Z,99302.53
2023-01-15T16:02:18.709Z,99314.31
2023-01-15T16:04:50.026Z,99314.69
2023-01-15T16:07:23.933Z,99290.78
2023-01-15T16:09:51.672Z,99315.38
2023-01-15T16:12:18.141Z,99298.03
2023-01-15T16:14:44.678Z,99299.38
2023-01-15T16:17:12.923Z,99309.06
2023-01-15T16:19:39.659Z,99318.72
2023-01-15T16:22:07.329Z,99311.44
2023-01-15T16:24:33.705Z,99318.72
2023-01-15T16:27:03.597Z,99321.13
2023-01-15T16:29:32.051Z,99323.16
2023-01-15T16:31:59.814Z,99310.22
2023-01-15T16:34:30.963Z,99319.16
2023-01-15T16:36:58.006Z,99322.13
2023-01-15T16:39:31.152Z,99329.72
2023-01-15T16:41:58.512Z,99323.34
2023-01-15T16:44:26.725Z,99318.66
2023-01-15T16:46:54.991Z,99333.41
2023-01-15T16:49:32.331Z,99317.75
2023-01-15T16:52:01.142Z,99336.75
2023-01-15T16:54:30.551Z,99336.75
2023-01-15T16:56:59.039Z,99332.59
2023-01-15T16:59:28.352Z,99327.59
2023-01-15T17:01:56.982Z,99330.59
2023-01-15T17:04:39.943Z,99335.97
2023-01-15T17:07:39.733Z,99331.91
2023-01-15T17:10:19.097Z,99348.56
2023-01-15T17:12:45.523Z,99335.16
2023-01-15T17:15:14.971Z,99335.41
2023-01-15T17:17:45.402Z,99336.56
2023-01-15T17:20:12.999Z,99345.72
2023-01-15T17:22:42.226Z,99353.97
2023-01-15T17:25:34.967Z,99342.16
2023-01-15T17:28:02.843Z,99339.63
2023-01-15T17:30:33.551Z,99344.56
2023-01-15T17:33:01.177Z,99339.44
2023-01-15T17:35:30.160Z,99341.91
2023-01-15T17:37:56.758Z,99348.38
2023-01-15T17:40:23.716Z,99348.72
2023-01-15T17:42:50.431Z,99343.25
2023-01-15T17:45:19.400Z,99347.03
2023-01-15T17:47:45.931Z,99364.91
2023-01-15T17:50:12.853Z,99348.81
2023-01-15T17:52:39.312Z,99347.72
2023-01-15T17:55:24.887Z,99359.88
2023-01-15T17:58:09.924Z,99354.19
2023-01-15T18:00:55.907Z,99354.53
2023-01-15T18:03:41.396Z,99369.03
2023-01-15T18:06:10.852Z,99352.28
2023-01-15T18:08:37.689Z,99349.59
2023-01-15T18:11:04.206Z,99355.31
2023-01-15T18:13:30.587Z,99362.44
2023-01-15T18:15:57.045Z,99355.31
2023-01-15T18:18:23.493Z,99351.28
2023-01-15T18:20:49.915Z,99354.84
2023-01-15T18:23:16.561Z,99358.88
2023-01-15T18:25:46.066Z,99356.19
2023-01-15T18:28:13.258Z,99353.31
2023-01-15T18:30:39.751Z,99352.84
2023-01-15T18:33:06.167Z,99356.88
2023-01-15T18:35:32.793Z,99361.44
2023-01-15T18:37:59.344Z,99358.25
2023-01-15T18:40:32.338Z,99351.72
2023-01-15T18:43:17.287Z,99365.59
2023-01-15T18:46:05.988Z,99363.69
2023-01-15T18:48:32.563Z,99348.44
2023-01-15T18:51:00.187Z,99372.53
2023-01-15T18:53:26.616Z,99360.91
2023-01-15T18:55:53.059Z,99367.63
2023-01-15T18:58:19.611Z,99373.44
2023-01-15T19:00:46.029Z,99369.09
2023-01-15T19:03:12.481Z,99365.84
2023-01-15T19:05:38.865Z,99366.06
2023-01-15T19:08:05.324Z,99359.13
2023-01-15T19:10:31.766Z,99377.91
2023-01-15T19:12:58.412Z,99358.91
2023-01-15T19:15:43.089Z,99372.53
2023-01-15T19:18:29.577Z,99361.97
2023-01-15T19:20:55.959Z,99369.19
2023-01-15T19:23:22.471Z,99374.91
2023-01-15T19:25:49.530Z,99373.09
2023-01-15T19:28:18.092Z,99390.47
2023-01-15T19:31:04.636Z,99374.59
2023-01-15T19:33:31.594Z,99381.44
2023-01-15T19:35:58.347Z,99384.22
2023-01-15T19:38:24.734Z,99372.03
2023-01-15T19:40:51.118Z,99372.59
2023-01-15T19:43:36.118Z,99369.25
2023-01-15T19:46:21.067Z,99368.34
2023-01-15T19:49:06.421Z,99380.31
2023-01-15T19:51:51.501Z,99365.91
2023-01-15T19:54:37.837Z,99364.34
2023-01-15T19:57:04.250Z,99364.34
2023-01-15T19:59:30.603Z,99365.91
2023-01-15T20:01:56.999Z,99358.22
2023-01-15T20:04:23.423Z,99360.63
2023-01-15T20:06:49.789Z,99349.69
2023-01-15T20:09:16.144Z,99358.97
2023-01-15T20:12:01.196Z,99344.25
2023-01-15T20:14:29.232Z,99329.97
2023-01-15T20:16:55.636Z,99335.44
2023-01-15T20:19:22.026Z,99334.28
2023-01-15T20:21:48.410Z,99329.72
2023-01-15T20:24:14.776Z,99326.59
2023-01-15T20:26:41.218Z,99314.56
2023-01-15T20:29:07.691Z,99315.25
2023-01-15T20:31:34.134Z,99310.09
2023-01-15T20:34:01.896Z,99308.72
2023-01-15T20:36:33.393Z,99312.31
2023-01-15T20:39:00.535Z,99298.22
2023-01-15T20:41:45.553Z,99296.97
2023-01-15T20:44:30.230Z,99294.88
2023-01-15T20:46:56.623Z,99283.78
2023-01-15T20:49:27.579Z,99277.22
2023-01-15T20:51:55.103Z,99281.66
2023-01-15T20:54:22.245Z,99276.84
2023-01-15T20:56:48.772Z,99273.59
2023-01-15T20:59:15.145Z,99268.25
2023-01-15T21:01:41.753Z,99270.81
2023-01-15T21:04:09.685Z,99259.06
2023-01-15T21:06:36.163Z,99246.78
2023-01-15T21:09:02.597Z,99255.63
2023-01-15T21:11:29.062Z,99261.81
2023-01-15T21:13:55.477Z,99259.81
2023-01-15T21:16:21.971Z,99256.94
2023-01-15T21:18:49.111Z,99248.22
2023-01-15T21:21:17.464Z,99253.72
2023-01-15T21:23:45.551Z,99240.31
2023-01-15T21:26:13.091Z,99245.59
2023-01-15T21:28:39.467Z,99235.88
2023-01-15T21:31:09.576Z,99230.34
2023-01-15T21:33:36.505Z,99230.25
2023-01-15T21:36:10.010Z,99222.41
2023-01-15T21:38:36.434Z,99218.97
2023-01-15T21:41:14.005Z,99217.28
2023-01-15T21:43:59.601Z,99208.56
2023-01-15T21:46:29.191Z,99205.88
2023-01-15T21:48:56.506Z,99198.88
2023-01-15T21:51:23.611Z,99187.59
2023-01-15T21:53:50.195Z,99194.19
2023-01-15T21:56:16.629Z,99190.09
2023-01-15T21:58:43.036Z,99182.09
2023-01-15T22:01:11.008Z,99187.78
2023-01-15T22:03:37.674Z,99194.72
2023-01-15T22:06:08.392Z,99188.78
2023-01-15T22:08:35.149Z,99178.88
2023-01-15T22:11:05.580Z,99172.19
2023-01-15T22:13:33.031Z,99169.16
2023-01-15T22:16:05.944Z,99174.38
2023-01-15T22:18:33.351Z,99174.38
2023-01-15T22:21:05.700Z,99192.66
2023-01-15T22:23:32.640Z,99160.59
2023-01-15T22:25:59.025Z,99164.44
2023-01-15T22:28:25.469Z,99153.88
2023-01-15T22:30:51.906Z,99170.72
2023-01-15T22:33:18.309Z,99160.50
2023-01-15T22:35:44.771Z,99160.91
2023-01-15T22:38:11.204Z,99157.19
2023-01-15T22:40:37.580Z,99160.13
2023-01-15T22:43:03.996Z,99157.47
2023-01-15T22:45:30.437Z,99158.13
2023-01-15T22:47:56.846Z,99149.31
2023-01-15T22:50:23.220Z,99142.53
2023-01-15T22:52:49.593Z,99140.75
2023-01-15T22:55:16.058Z,99133.75
2023-01-15T22:57:42.437Z,99131.75
2023-01-15T23:00:09.573Z,99121.16
2023-01-15T23:02:54.565Z,99116.50
2023-01-15T23:05:21.872Z,99118.38
2023-01-15T23:07:48.755Z,99103.91
2023-01-15T23:10:15.154Z,99107.69
2023-01-15T23:12:42.351Z,99104.91
2023-01-15T23:15:12.265Z,99108.69
2023-01-15T23:17:38.991Z,99096.09
2023-01-15T23:20:07.005Z,99100.66
2023-01-15T23:22:33.406Z,99102.47
2023-01-15T23:24:59.786Z,99083.75
2023-01-15T23:27:26.171Z,99083.59
2023-01-15T23:29:52.743Z,99071.66
2023-01-15T23:32:19.117Z,99075.72
2023-01-15T23:34:45.487Z,99062.84
2023-01-15T23:37:11.928Z,99061.59
2023-01-15T23:39:38.350Z,99065.19
2023-01-15T23:42:22.943Z,99054.72
2023-01-15T23:45:07.706Z,99054.81
2023-01-15T23:47:34.099Z,99037.34
2023-01-15T23:50:00.482Z,99035.97
2023-01-15T23:52:26.899Z,99039.09
2023-01-15T23:54:53.270Z,99033.47
2023-01-15T23:57:19.664Z,99022.66
2023-01-15T23:59:46.043Z,99027.84
